createdAt,value
2023-02-19T00:00:27.362Z,18.70
2023-02-19T00:02:59.048Z,18.82
2023-02-19T00:05:29.340Z,18.73
2023-02-19T00:07:59.545Z,18.72
2023-02-19T00:10:29.658Z,18.59
2023-02-19T00:12:59.879Z,18.57
2023-02-19T00:15:31.911Z,18.39
2023-02-19T00:18:02.266Z,18.31
2023-02-19T00:20:32.506Z,18.22
2023-02-19T00:23:02.723Z,18.12
2023-02-19T00:25:32.957Z,18.01
2023-02-19T00:28:03.145Z,17.82
2023-02-19T00:30:33.601Z,17.82
2023-02-19T00:33:03.781Z,17.87
2023-02-19T00:35:39.132Z,17.81
2023-02-19T00:38:09.546Z,17.84
2023-02-19T00:40:40.858Z,17.74
2023-02-19T00:43:11.158Z,17.53
2023-02-19T00:45:41.342Z,17.46
2023-02-19T00:48:11.548Z,17.41
2023-02-19T00:50:41.884Z,17.61
2023-02-19T00:53:12.226Z,17.59
2023-02-19T00:55:42.013Z,17.26
2023-02-19T00:58:12.061Z,17.06
2023-02-19T01:00:42.305Z,16.92
2023-02-19T01:03:12.939Z,17.00
2023-02-19T01:05:44.171Z,16.85
2023-02-19T01:08:14.411Z,16.82
2023-02-19T01:10:45.523Z,16.90
2023-02-19T01:13:15.254Z,17.08
2023-02-19T01:15:45.586Z,17.29
2023-02-19T01:18:15.887Z,17.36
2023-02-19T01:20:46.452Z,17.37
2023-02-19T01:23:16.436Z,17.34
2023-02-19T01:25:46.623Z,17.22
2023-02-19T01:28:16.910Z,17.12
2023-02-19T01:30:46.939Z,17.18
2023-02-19T01:33:17.183Z,17.20
2023-02-19T01:35:47.414Z,17.23
2023-02-19T01:38:17.666Z,17.24
2023-02-19T01:40:55.532Z,17.23
2023-02-19T01:43:26.183Z,17.10
2023-02-19T01:45:57.033Z,16.88
2023-02-19T01:48:39.418Z,16.52
2023-02-19T01:51:14.524Z,16.55
2023-02-19T01:53:49.452Z,16.41
2023-02-19T01:56:21.441Z,16.42
2023-02-19T01:58:51.944Z,16.61
2023-02-19T02:01:22.289Z,16.78
2023-02-19T02:03:53.445Z,16.86
2023-02-19T02:06:39.814Z,16.58
2023-02-19T02:09:28.524Z,16.41
2023-02-19T02:11:59.517Z,16.65
2023-02-19T02:14:33.214Z,16.75
2023-02-19T02:17:06.286Z,16.55
2023-02-19T02:20:04.785Z,16.32
2023-02-19T02:22:48.815Z,16.21
2023-02-19T02:25:35.732Z,16.31
2023-02-19T02:28:36.882Z,16.52
2023-02-19T02:31:21.513Z,16.67
2023-02-19T02:34:17.894Z,16.62
2023-02-19T02:36:53.719Z,16.55
2023-02-19T02:39:27.883Z,16.48
2023-02-19T02:42:19.862Z,16.47
2023-02-19T02:45:35.283Z,16.51
2023-02-19T02:48:31.978Z,16.52
2023-02-19T02:51:06.186Z,16.47
2023-02-19T02:54:11.869Z,16.06
2023-02-19T02:56:44.457Z,16.10
2023-02-19T02:59:17.260Z,16.03
2023-02-19T03:02:13.071Z,16.03
2023-02-19T03:05:25.640Z,16.18
2023-02-19T03:08:27.270Z,16.20
2023-02-19T03:11:33.352Z,16.25
2023-02-19T03:14:26.428Z,16.31
2023-02-19T03:17:24.883Z,16.35
2023-02-19T03:20:00.300Z,16.35
2023-02-19T03:22:36.764Z,16.32
2023-02-19T03:25:33.460Z,16.34
2023-02-19T03:28:08.891Z,16.21
2023-02-19T03:30:45.361Z,16.07
2023-02-19T03:33:24.054Z,16.14
2023-02-19T03:36:08.175Z,16.24
2023-02-19T03:38:49.762Z,16.25
2023-02-19T03:41:44.694Z,16.24
2023-02-19T03:44:16.042Z,16.16
2023-02-19T03:47:00.857Z,16.14
2023-02-19T03:49:43.232Z,16.17
2023-02-19T03:52:35.874Z,16.17
2023-02-19T03:55:22.671Z,16.11
2023-02-19T03:58:04.398Z,16.16
2023-02-19T04:00:50.515Z,15.97
2023-02-19T04:03:50.883Z,15.93
2023-02-19T04:06:29.255Z,15.99
2023-02-19T04:09:03.045Z,15.97
2023-02-19T04:11:34.935Z,15.96
2023-02-19T04:14:25.452Z,15.86
2023-02-19T04:17:01.214Z,15.85
2023-02-19T04:19:34.654Z,15.87
2023-02-19T04:22:07.900Z,15.85
2023-02-19T04:24:44.838Z,15.86
2023-02-19T04:27:15.272Z,15.86
2023-02-19T04:29:45.085Z,15.90
2023-02-19T04:32:15.753Z,15.90
2023-02-19T04:34:46.085Z,15.89
2023-02-19T04:37:16.458Z,15.83
2023-02-19T04:39:46.792Z,15.83
2023-02-19T04:42:17.034Z,15.82
2023-02-19T04:44:47.323Z,15.77
2023-02-19T04:47:20.351Z,15.73
2023-02-19T04:49:50.664Z,15.67
2023-02-19T04:52:20.711Z,15.58
2023-02-19T04:54:50.817Z,15.52
2023-02-19T04:57:20.854Z,15.55
2023-02-19T04:59:51.294Z,15.55
2023-02-19T05:02:21.069Z,15.53
2023-02-19T05:04:51.241Z,15.52
2023-02-19T05:07:21.472Z,15.48
2023-02-19T05:09:51.761Z,15.46
2023-02-19T05:12:22.554Z,15.42
2023-02-19T05:14:52.835Z,15.45
2023-02-19T05:17:23.060Z,15.45
2023-02-19T05:19:53.324Z,15.40
2023-02-19T05:22:23.424Z,15.35
2023-02-19T05:24:53.790Z,15.28
2023-02-19T05:27:24.050Z,15.24
2023-02-19T05:29:54.271Z,15.19
2023-02-19T05:32:24.484Z,15.15
2023-02-19T05:34:54.794Z,15.17
2023-02-19T05:37:25.071Z,15.18
2023-02-19T05:39:55.323Z,15.14
2023-02-19T05:42:25.636Z,15.18
2023-02-19T05:44:55.996Z,15.12
2023-02-19T05:47:26.149Z,15.07
2023-02-19T05:49:56.449Z,15.04
2023-02-19T05:52:26.677Z,14.94
2023-02-19T05:54:56.866Z,14.89
2023-02-19T05:57:28.289Z,14.89
2023-02-19T05:59:58.350Z,14.89
2023-02-19T06:02:28.466Z,14.87
2023-02-19T06:04:58.733Z,14.81
2023-02-19T06:07:28.909Z,14.80
2023-02-19T06:09:59.247Z,14.77
2023-02-19T06:12:29.613Z,14.78
2023-02-19T06:14:59.862Z,14.77
2023-02-19T06:17:30.116Z,14.74
2023-02-19T06:20:00.535Z,14.68
2023-02-19T06:22:30.751Z,14.61
2023-02-19T06:25:00.751Z,14.56
2023-02-19T06:27:30.940Z,14.46
2023-02-19T06:30:01.443Z,14.36
2023-02-19T06:32:31.310Z,14.29
2023-02-19T06:35:01.407Z,14.16
2023-02-19T06:37:31.961Z,14.26
2023-02-19T06:40:01.685Z,14.22
2023-02-19T06:42:34.551Z,14.13
2023-02-19T06:45:05.163Z,14.01
2023-02-19T06:47:35.700Z,13.86
2023-02-19T06:50:05.423Z,13.94
2023-02-19T06:52:35.346Z,13.81
2023-02-19T06:55:05.475Z,13.78
2023-02-19T06:57:35.613Z,13.65
2023-02-19T07:00:06.473Z,13.71
2023-02-19T07:02:36.514Z,13.71
2023-02-19T07:05:06.805Z,13.68
2023-02-19T07:07:36.570Z,13.62
2023-02-19T07:10:06.672Z,13.64
2023-02-19T07:12:36.739Z,13.58
2023-02-19T07:15:06.806Z,13.58
2023-02-19T07:17:37.401Z,13.54
2023-02-19T07:20:07.408Z,13.51
2023-02-19T07:22:37.468Z,13.44
2023-02-19T07:25:07.886Z,13.37
2023-02-19T07:27:38.755Z,13.50
2023-02-19T07:30:09.198Z,13.76
2023-02-19T07:32:43.603Z,13.85
2023-02-19T07:35:14.035Z,13.85
2023-02-19T07:37:44.193Z,13.88
2023-02-19T07:40:14.296Z,13.82
2023-02-19T07:42:44.394Z,13.78
2023-02-19T07:45:14.571Z,13.58
2023-02-19T07:47:45.640Z,13.65
2023-02-19T07:50:15.902Z,13.69
2023-02-19T07:52:45.851Z,13.72
2023-02-19T07:55:16.020Z,13.51
2023-02-19T07:57:46.050Z,13.45
2023-02-19T08:00:16.513Z,13.61
2023-02-19T08:03:01.826Z,13.81
2023-02-19T08:05:43.330Z,13.86
2023-02-19T08:08:15.829Z,13.79
2023-02-19T08:11:03.865Z,13.79
2023-02-19T08:13:34.561Z,13.85
2023-02-19T08:16:16.934Z,13.86
2023-02-19T08:18:49.504Z,13.85
2023-02-19T08:21:19.893Z,13.82
2023-02-19T08:23:51.335Z,13.76
2023-02-19T08:26:21.674Z,13.78
2023-02-19T08:28:51.729Z,13.57
2023-02-19T08:31:21.713Z,13.30
2023-02-19T08:33:51.915Z,13.07
2023-02-19T08:36:22.110Z,13.03
2023-02-19T08:38:52.258Z,13.00
2023-02-19T08:41:22.754Z,13.08
2023-02-19T08:43:52.895Z,13.13
2023-02-19T08:46:23.907Z,13.00
2023-02-19T08:48:53.976Z,12.99
2023-02-19T08:51:24.123Z,13.07
2023-02-19T08:53:54.313Z,13.13
2023-02-19T08:56:24.535Z,13.17
2023-02-19T08:58:54.695Z,13.13
2023-02-19T09:01:25.185Z,13.10
2023-02-19T09:03:56.031Z,13.00
2023-02-19T09:06:26.135Z,12.89
2023-02-19T09:08:56.268Z,12.86
2023-02-19T09:11:26.406Z,12.87
2023-02-19T09:13:58.587Z,12.75
2023-02-19T09:16:29.108Z,12.69
2023-02-19T09:18:59.318Z,12.79
2023-02-19T09:21:30.242Z,12.86
2023-02-19T09:24:00.371Z,12.89
2023-02-19T09:26:30.447Z,12.86
2023-02-19T09:29:00.575Z,12.83
2023-02-19T09:31:30.741Z,12.80
2023-02-19T09:34:00.925Z,12.76
2023-02-19T09:36:31.051Z,12.83
2023-02-19T09:39:02.414Z,12.99
2023-02-19T09:41:47.798Z,13.02
2023-02-19T09:44:39.284Z,13.08
2023-02-19T09:47:21.276Z,13.28
2023-02-19T09:49:57.805Z,13.38
2023-02-19T09:52:38.131Z,13.45
2023-02-19T09:55:30.853Z,13.41
2023-02-19T09:58:03.631Z,13.51
2023-02-19T10:00:37.454Z,13.54
2023-02-19T10:03:13.581Z,13.57
2023-02-19T10:05:43.940Z,13.66
2023-02-19T10:08:19.658Z,13.75
2023-02-19T10:10:50.397Z,13.81
2023-02-19T10:13:20.537Z,13.85
2023-02-19T10:15:58.739Z,13.94
2023-02-19T10:18:37.903Z,13.95
2023-02-19T10:21:09.077Z,13.99
2023-02-19T10:23:41.269Z,13.95
2023-02-19T10:26:11.808Z,13.96
2023-02-19T10:28:41.539Z,14.16
2023-02-19T10:31:20.526Z,14.32
2023-02-19T10:33:57.697Z,14.48
2023-02-19T10:36:34.174Z,14.59
2023-02-19T10:39:09.795Z,14.50
2023-02-19T10:41:44.334Z,14.60
2023-02-19T10:44:25.648Z,14.64
2023-02-19T10:46:58.964Z,14.73
2023-02-19T10:49:38.446Z,14.88
2023-02-19T10:52:28.737Z,15.07
2023-02-19T10:55:22.150Z,15.25
2023-02-19T10:57:52.281Z,15.36
2023-02-19T11:00:30.053Z,15.48
2023-02-19T11:03:35.234Z,15.58
2023-02-19T11:06:11.354Z,15.62
2023-02-19T11:09:02.235Z,15.73
2023-02-19T11:11:41.211Z,15.80
2023-02-19T11:14:20.388Z,15.87
2023-02-19T11:16:54.826Z,15.97
2023-02-19T11:19:33.935Z,16.08
2023-02-19T11:22:19.191Z,16.21
2023-02-19T11:24:57.310Z,16.35
2023-02-19T11:27:28.876Z,16.31
2023-02-19T11:30:27.997Z,16.20
2023-02-19T11:33:14.744Z,16.44
2023-02-19T11:35:53.855Z,16.64
2023-02-19T11:38:24.126Z,16.78
2023-02-19T11:41:37.402Z,17.13
2023-02-19T11:44:16.514Z,17.40
2023-02-19T11:47:19.690Z,17.61
2023-02-19T11:50:01.316Z,17.75
2023-02-19T11:52:31.312Z,18.04
2023-02-19T11:55:41.968Z,18.19
2023-02-19T11:58:36.351Z,18.42
2023-02-19T12:01:15.497Z,18.70
2023-02-19T12:04:22.100Z,18.93
2023-02-19T12:07:07.522Z,19.08
2023-02-19T12:10:05.603Z,19.21
2023-02-19T12:13:12.520Z,19.34
2023-02-19T12:15:59.099Z,19.52
2023-02-19T12:18:50.363Z,19.57
2023-02-19T12:21:40.550Z,19.66
2023-02-19T12:25:04.022Z,19.72
2023-02-19T12:27:59.414Z,19.83
2023-02-19T12:30:47.145Z,19.92
2023-02-19T12:33:58.362Z,20.16
2023-02-19T12:37:16.685Z,20.33
2023-02-19T12:39:59.115Z,20.43
2023-02-19T12:42:38.225Z,20.47
2023-02-19T12:45:29.583Z,20.65
2023-02-19T12:48:12.381Z,20.80
2023-02-19T12:50:42.245Z,20.91
2023-02-19T12:53:33.527Z,20.98
2023-02-19T12:56:10.930Z,21.25
2023-02-19T12:58:56.804Z,21.49
2023-02-19T13:01:35.060Z,21.90
2023-02-19T13:04:26.643Z,22.41
2023-02-19T13:07:11.106Z,22.59
2023-02-19T13:09:52.413Z,22.72
2023-02-19T13:12:27.719Z,22.81
2023-02-19T13:15:02.345Z,22.98
2023-02-19T13:17:42.717Z,22.99
2023-02-19T13:20:34.317Z,23.23
2023-02-19T13:23:29.861Z,23.33
2023-02-19T13:26:14.755Z,23.43
2023-02-19T13:29:01.368Z,23.45
2023-02-19T13:31:46.841Z,23.49
2023-02-19T13:34:22.490Z,23.66
2023-02-19T13:36:52.828Z,23.84
2023-02-19T13:39:24.484Z,24.01
2023-02-19T13:42:00.405Z,23.96
2023-02-19T13:44:42.800Z,23.88
2023-02-19T13:47:47.407Z,24.18
2023-02-19T13:50:24.222Z,24.28
2023-02-19T13:53:18.409Z,24.42
2023-02-19T13:55:52.733Z,24.28
2023-02-19T13:58:35.000Z,24.53
2023-02-19T14:01:06.254Z,24.66
2023-02-19T14:03:39.362Z,24.69
2023-02-19T14:06:11.248Z,24.68
2023-02-19T14:08:51.708Z,24.77
2023-02-19T14:11:44.192Z,25.03
2023-02-19T14:14:38.347Z,25.09
2023-02-19T14:17:11.364Z,25.09
2023-02-19T14:19:44.311Z,24.97
2023-02-19T14:22:50.623Z,25.35
2023-02-19T14:25:29.800Z,25.26
2023-02-19T14:28:31.224Z,25.28
2023-02-19T14:31:04.512Z,24.94
2023-02-19T14:33:37.447Z,25.27
2023-02-19T14:36:15.622Z,25.35
2023-02-19T14:39:14.566Z,25.38
2023-02-19T14:41:50.035Z,25.54
2023-02-19T14:44:32.533Z,25.69
2023-02-19T14:47:06.219Z,25.77
2023-02-19T14:50:04.465Z,26.22
2023-02-19T14:52:51.740Z,26.40
2023-02-19T14:55:41.474Z,26.30
2023-02-19T14:58:20.235Z,26.19
2023-02-19T15:00:50.341Z,26.16
2023-02-19T15:03:40.649Z,26.09
2023-02-19T15:06:18.852Z,26.01
2023-02-19T15:08:51.497Z,25.99
2023-02-19T15:11:25.082Z,26.35
2023-02-19T15:14:04.118Z,26.42
2023-02-19T15:16:37.269Z,26.44
2023-02-19T15:19:11.188Z,26.57
2023-02-19T15:21:50.957Z,27.02
2023-02-19T15:24:21.382Z,27.10
2023-02-19T15:26:55.285Z,27.28
2023-02-19T15:29:27.781Z,27.00
2023-02-19T15:32:00.497Z,26.67
2023-02-19T15:34:32.653Z,27.02
2023-02-19T15:37:06.319Z,27.07
2023-02-19T15:39:45.042Z,27.24
2023-02-19T15:42:33.227Z,27.21
2023-02-19T15:45:32.768Z,27.31
2023-02-19T15:48:31.636Z,27.20
2023-02-19T15:51:10.633Z,27.08
2023-02-19T15:53:47.996Z,27.11
2023-02-19T15:56:40.631Z,27.53
2023-02-19T15:59:24.049Z,27.73
2023-02-19T16:01:54.449Z,27.76
2023-02-19T16:04:24.587Z,27.99
2023-02-19T16:07:01.694Z,28.27
2023-02-19T16:09:36.494Z,28.02
2023-02-19T16:12:25.853Z,27.78
2023-02-19T16:14:56.034Z,27.86
2023-02-19T16:17:29.208Z,28.14
2023-02-19T16:20:03.781Z,27.90
2023-02-19T16:22:42.872Z,27.73
2023-02-19T16:25:26.603Z,27.76
2023-02-19T16:27:57.299Z,27.81
2023-02-19T16:30:35.020Z,27.85
2023-02-19T16:33:50.973Z,28.34
2023-02-19T16:36:50.446Z,28.67
2023-02-19T16:39:22.758Z,28.31
2023-02-19T16:41:52.769Z,28.10
2023-02-19T16:44:34.768Z,27.73
2023-02-19T16:47:07.100Z,28.12
2023-02-19T16:49:38.624Z,28.03
2023-02-19T16:52:08.828Z,28.41
2023-02-19T16:54:39.068Z,28.24
2023-02-19T16:57:09.269Z,28.33
2023-02-19T16:59:39.402Z,28.31
2023-02-19T17:02:12.578Z,28.23
2023-02-19T17:04:42.768Z,28.34
2023-02-19T17:07:17.111Z,28.27
2023-02-19T17:09:47.250Z,28.24
2023-02-19T17:12:18.807Z,28.16
2023-02-19T17:14:49.008Z,28.04
2023-02-19T17:17:19.134Z,28.20
2023-02-19T17:19:49.607Z,28.21
2023-02-19T17:22:19.718Z,28.24
2023-02-19T17:24:49.546Z,28.13
2023-02-19T17:27:19.631Z,28.25
2023-02-19T17:29:49.786Z,28.28
2023-02-19T17:32:19.402Z,28.16
2023-02-19T17:34:50.881Z,28.40
2023-02-19T17:37:20.968Z,28.16
2023-02-19T17:39:51.203Z,28.14
2023-02-19T17:42:21.430Z,28.16
2023-02-19T17:44:53.192Z,28.20
2023-02-19T17:47:23.614Z,27.88
2023-02-19T17:49:53.820Z,28.04
2023-02-19T17:52:23.214Z,28.12
2023-02-19T17:54:53.050Z,28.24
2023-02-19T17:57:23.206Z,28.20
2023-02-19T17:59:53.305Z,28.33
2023-02-19T18:02:23.447Z,28.30
2023-02-19T18:04:53.511Z,28.06
2023-02-19T18:07:24.077Z,28.00
2023-02-19T18:09:54.854Z,27.79
2023-02-19T18:12:26.981Z,27.63
2023-02-19T18:14:57.854Z,27.59
2023-02-19T18:17:28.246Z,27.70
2023-02-19T18:19:58.680Z,27.55
2023-02-19T18:22:28.884Z,27.59
2023-02-19T18:25:00.001Z,27.55
2023-02-19T18:27:30.272Z,27.51
2023-02-19T18:30:00.481Z,27.59
2023-02-19T18:32:31.675Z,27.63
2023-02-19T18:35:22.632Z,27.56
2023-02-19T18:37:54.541Z,27.39
2023-02-19T18:40:28.484Z,27.51
2023-02-19T18:42:58.607Z,27.45
2023-02-19T18:45:28.724Z,27.43
2023-02-19T18:47:58.913Z,27.61
2023-02-19T18:50:29.329Z,27.32
2023-02-19T18:52:59.580Z,27.39
2023-02-19T18:55:29.673Z,27.32
2023-02-19T18:57:59.573Z,27.43
2023-02-19T19:00:29.982Z,27.25
2023-02-19T19:03:00.743Z,27.37
2023-02-19T19:05:30.993Z,27.22
2023-02-19T19:08:02.908Z,27.34
2023-02-19T19:10:33.070Z,27.41
2023-02-19T19:13:03.218Z,27.37
2023-02-19T19:15:33.369Z,27.28
2023-02-19T19:18:04.041Z,27.25
2023-02-19T19:20:34.186Z,27.22
2023-02-19T19:23:06.081Z,27.35
2023-02-19T19:25:40.240Z,27.41
2023-02-19T19:28:11.940Z,28.17
2023-02-19T19:30:44.580Z,30.10
2023-02-19T19:33:14.875Z,29.20
2023-02-19T19:35:44.977Z,29.06
2023-02-19T19:38:14.635Z,29.69
2023-02-19T19:40:44.486Z,29.39
2023-02-19T19:43:15.072Z,29.81
2023-02-19T19:45:45.124Z,28.61
2023-02-19T19:48:15.410Z,29.56
2023-02-19T19:50:45.646Z,28.34
2023-02-19T19:53:16.332Z,27.37
2023-02-19T19:55:46.579Z,26.67
2023-02-19T19:58:18.025Z,26.30
2023-02-19T20:00:49.264Z,26.51
2023-02-19T20:03:20.917Z,26.53
2023-02-19T20:05:52.483Z,26.71
2023-02-19T20:08:23.227Z,26.83
2023-02-19T20:10:54.412Z,26.71
2023-02-19T20:13:25.738Z,26.97
2023-02-19T20:15:55.835Z,26.81
2023-02-19T20:18:27.209Z,26.67
2023-02-19T20:20:57.517Z,26.53
2023-02-19T20:23:27.470Z,26.60
2023-02-19T20:26:00.256Z,26.56
2023-02-19T20:28:30.531Z,26.57
2023-02-19T20:31:00.124Z,26.60
2023-02-19T20:33:30.067Z,26.73
2023-02-19T20:35:59.731Z,26.95
2023-02-19T20:38:29.468Z,26.88
2023-02-19T20:40:59.496Z,27.55
2023-02-19T20:43:29.247Z,27.14
2023-02-19T20:45:59.312Z,27.89
2023-02-19T20:48:29.173Z,26.91
2023-02-19T20:51:00.790Z,25.82
2023-02-19T20:53:33.220Z,25.81
2023-02-19T20:56:03.404Z,28.25
2023-02-19T20:58:33.555Z,30.71
2023-02-19T21:01:03.296Z,30.45
2023-02-19T21:03:33.328Z,28.67
2023-02-19T21:06:02.979Z,26.77
2023-02-19T21:08:33.087Z,25.75
2023-02-19T21:11:03.137Z,25.44
2023-02-19T21:13:33.317Z,25.86
2023-02-19T21:16:03.456Z,25.10
2023-02-19T21:18:34.624Z,24.91
2023-02-19T21:21:04.815Z,24.79
2023-02-19T21:23:34.709Z,24.66
2023-02-19T21:26:05.196Z,24.47
2023-02-19T21:28:35.530Z,24.30
2023-02-19T21:31:06.057Z,24.15
2023-02-19T21:33:36.419Z,24.07
2023-02-19T21:36:07.349Z,23.98
2023-02-19T21:38:37.605Z,23.87
2023-02-19T21:41:07.727Z,23.74
2023-02-19T21:43:37.605Z,23.64
2023-02-19T21:46:07.350Z,23.56
2023-02-19T21:48:37.186Z,23.42
2023-02-19T21:51:06.969Z,23.33
2023-02-19T21:53:37.136Z,23.22
2023-02-19T21:56:06.875Z,23.17
2023-02-19T21:58:36.950Z,23.05
2023-02-19T22:01:06.745Z,23.00
2023-02-19T22:03:36.544Z,22.89
2023-02-19T22:06:06.925Z,22.81
2023-02-19T22:08:37.135Z,22.72
2023-02-19T22:11:07.350Z,22.72
2023-02-19T22:13:37.553Z,22.68
2023-02-19T22:16:08.297Z,22.62
2023-02-19T22:18:38.595Z,22.58
2023-02-19T22:21:08.801Z,22.54
2023-02-19T22:23:38.737Z,22.48
2023-02-19T22:26:08.688Z,22.44
2023-02-19T22:28:40.549Z,22.37
2023-02-19T22:31:10.837Z,22.31
2023-02-19T22:33:40.856Z,22.28
2023-02-19T22:36:26.356Z,22.24
2023-02-19T22:38:56.756Z,22.17
2023-02-19T22:41:27.281Z,22.10
2023-02-19T22:43:59.024Z,22.13
2023-02-19T22:46:32.945Z,22.08
2023-02-19T22:49:06.006Z,22.06
2023-02-19T22:51:36.812Z,22.00
2023-02-19T22:54:06.944Z,21.97
2023-02-19T22:56:37.040Z,21.92
2023-02-19T22:59:07.137Z,21.86
2023-02-19T23:01:37.641Z,21.83
2023-02-19T23:04:07.853Z,21.83
2023-02-19T23:06:39.085Z,21.79
2023-02-19T23:09:15.428Z,21.76
2023-02-19T23:11:46.402Z,21.73
2023-02-19T23:14:19.663Z,21.73
2023-02-19T23:16:50.073Z,21.75
2023-02-19T23:19:20.210Z,21.72
2023-02-19T23:21:50.582Z,21.63
2023-02-19T23:24:20.930Z,21.59
2023-02-19T23:26:53.537Z,21.49
2023-02-19T23:29:26.825Z,21.47
2023-02-19T23:31:57.383Z,21.46
2023-02-19T23:34:27.681Z,21.46
2023-02-19T23:36:57.400Z,21.45
2023-02-19T23:39:27.255Z,21.45
2023-02-19T23:42:01.089Z,21.36
2023-02-19T23:44:30.726Z,21.36
2023-02-19T23:47:00.643Z,21.35
2023-02-19T23:49:30.526Z,21.28
2023-02-19T23:52:00.600Z,21.28
2023-02-19T23:54:30.769Z,21.21
2023-02-19T23:57:00.710Z,21.16
2023-02-19T23:59:30.558Z,21.14
